createdAt,value
2018-12-07T00:00:22.191Z,959.61
2018-12-07T00:02:48.478Z,959.60
2018-12-07T00:05:14.770Z,959.59
2018-12-07T00:07:41.066Z,959.64
2018-12-07T00:10:07.365Z,959.56
2018-12-07T00:12:33.647Z,959.58
2018-12-07T00:14:59.935Z,959.58
2018-12-07T00:17:26.232Z,959.61
2018-12-07T00:19:52.525Z,959.52
2018-12-07T00:22:18.811Z,959.52
2018-12-07T00:24:45.110Z,959.55
2018-12-07T00:27:11.408Z,959.45
2018-12-07T00:29:37.701Z,959.44
2018-12-07T00:32:04.019Z,959.49
2018-12-07T00:34:30.412Z,959.49
2018-12-07T00:36:56.619Z,959.43
2018-12-07T00:39:22.923Z,959.49
2018-12-07T00:41:49.212Z,959.41
2018-12-07T00:44:15.597Z,959.41
2018-12-07T00:46:41.901Z,959.39
2018-12-07T00:49:08.245Z,959.36
2018-12-07T00:51:34.561Z,959.34
2018-12-07T00:54:00.855Z,959.31
2018-12-07T00:56:27.199Z,959.30
2018-12-07T00:58:53.488Z,959.30
2018-12-07T01:01:19.776Z,959.26
2018-12-07T01:03:46.072Z,959.29
2018-12-07T01:06:12.400Z,959.38
2018-12-07T01:08:38.696Z,959.27
2018-12-07T01:11:04.992Z,959.30
2018-12-07T01:13:31.299Z,959.31
2018-12-07T01:15:57.568Z,959.40
2018-12-07T01:18:23.883Z,959.42
2018-12-07T01:20:50.153Z,959.36
2018-12-07T01:23:16.454Z,959.43
2018-12-07T01:25:42.747Z,959.40
2018-12-07T01:28:09.051Z,959.28
2018-12-07T01:30:35.326Z,959.26
2018-12-07T01:33:01.624Z,959.33
2018-12-07T01:35:27.958Z,959.31
2018-12-07T01:37:54.254Z,959.28
2018-12-07T01:40:20.542Z,959.24
2018-12-07T01:42:46.838Z,959.26
2018-12-07T01:45:13.116Z,959.28
2018-12-07T01:47:39.409Z,959.31
2018-12-07T01:50:05.699Z,959.39
2018-12-07T01:52:31.982Z,959.36
2018-12-07T01:54:58.286Z,959.31
2018-12-07T01:57:24.569Z,959.36
2018-12-07T01:59:50.911Z,959.35
2018-12-07T02:02:17.209Z,959.33
2018-12-07T02:04:43.505Z,959.37
2018-12-07T02:07:09.795Z,959.36
2018-12-07T02:09:36.099Z,959.40
2018-12-07T02:12:02.393Z,959.36
2018-12-07T02:14:28.726Z,959.33
2018-12-07T02:16:55.023Z,959.25
2018-12-07T02:19:21.319Z,959.24
2018-12-07T02:21:47.599Z,959.19
2018-12-07T02:24:13.903Z,959.18
2018-12-07T02:26:40.205Z,959.20
2018-12-07T02:29:06.494Z,959.11
2018-12-07T02:31:32.820Z,959.19
2018-12-07T02:33:59.126Z,959.15
2018-12-07T02:36:25.456Z,959.03
2018-12-07T02:38:51.759Z,959.08
2018-12-07T02:41:18.046Z,959.12
2018-12-07T02:43:44.349Z,959.05
2018-12-07T02:46:10.631Z,959.08
2018-12-07T02:48:36.929Z,959.14
2018-12-07T02:51:03.225Z,959.09
2018-12-07T02:53:29.555Z,959.21
2018-12-07T02:55:55.888Z,959.24
2018-12-07T02:58:22.188Z,959.17
2018-12-07T03:00:48.513Z,959.24
2018-12-07T03:03:14.821Z,959.29
2018-12-07T03:05:41.115Z,959.36
2018-12-07T03:08:07.407Z,959.31
2018-12-07T03:10:33.725Z,959.34
2018-12-07T03:13:00.027Z,959.34
2018-12-07T03:15:26.315Z,959.23
2018-12-07T03:17:52.622Z,959.32
2018-12-07T03:20:18.913Z,959.29
2018-12-07T03:22:45.208Z,959.37
2018-12-07T03:25:11.494Z,959.39
2018-12-07T03:27:37.788Z,959.41
2018-12-07T03:30:07.943Z,959.34
2018-12-07T03:32:34.257Z,959.34
2018-12-07T03:35:00.554Z,959.38
2018-12-07T03:37:26.847Z,959.36
2018-12-07T03:39:53.131Z,959.34
2018-12-07T03:42:19.447Z,959.41
2018-12-07T03:44:45.773Z,959.39
2018-12-07T03:47:12.097Z,959.38
2018-12-07T03:49:38.377Z,959.33
2018-12-07T03:52:04.685Z,959.33
2018-12-07T03:54:30.961Z,959.28
2018-12-07T03:56:57.268Z,959.32
2018-12-07T03:59:23.560Z,959.42
2018-12-07T04:01:49.867Z,959.46
2018-12-07T04:04:16.173Z,959.49
2018-12-07T04:06:42.479Z,959.42
2018-12-07T04:09:08.766Z,959.40
2018-12-07T04:11:35.066Z,959.41
2018-12-07T04:14:01.360Z,959.51
2018-12-07T04:16:27.692Z,959.34
2018-12-07T04:18:53.969Z,959.43
2018-12-07T04:21:20.334Z,959.53
2018-12-07T04:23:46.636Z,959.57
2018-12-07T04:26:13.013Z,959.53
2018-12-07T04:28:39.297Z,959.44
2018-12-07T04:31:05.611Z,959.34
2018-12-07T04:33:31.933Z,959.31
2018-12-07T04:35:58.245Z,959.38
2018-12-07T04:38:24.540Z,959.44
2018-12-07T04:40:50.828Z,959.47
2018-12-07T04:43:17.126Z,959.41
2018-12-07T04:45:43.430Z,959.39
2018-12-07T04:48:09.759Z,959.38
2018-12-07T04:50:36.017Z,959.34
2018-12-07T04:53:02.305Z,959.36
2018-12-07T04:55:28.596Z,959.34
2018-12-07T04:57:54.880Z,959.36
2018-12-07T05:00:21.199Z,959.31
2018-12-07T05:02:47.613Z,959.37
2018-12-07T05:05:13.943Z,959.36
2018-12-07T05:07:40.266Z,959.41
2018-12-07T05:10:06.568Z,959.45
2018-12-07T05:12:32.863Z,959.42
2018-12-07T05:14:59.154Z,959.46
2018-12-07T05:17:25.474Z,959.54
2018-12-07T05:19:51.805Z,959.57
2018-12-07T05:22:18.121Z,959.56
2018-12-07T05:24:44.438Z,959.52
2018-12-07T05:27:10.717Z,959.37
2018-12-07T05:29:37.047Z,959.50
2018-12-07T05:32:03.338Z,959.58
2018-12-07T05:34:29.638Z,959.59
2018-12-07T05:36:55.917Z,959.54
2018-12-07T05:39:22.220Z,959.57
2018-12-07T05:41:48.564Z,959.61
2018-12-07T05:44:14.857Z,959.64
2018-12-07T05:46:41.134Z,959.71
2018-12-07T05:49:07.446Z,959.71
2018-12-07T05:51:33.751Z,959.67
2018-12-07T05:54:00.062Z,959.67
2018-12-07T05:56:26.390Z,959.74
2018-12-07T05:58:52.683Z,959.68
2018-12-07T06:01:18.998Z,959.66
2018-12-07T06:03:45.320Z,959.67
2018-12-07T06:06:11.610Z,959.71
2018-12-07T06:08:37.964Z,959.73
2018-12-07T06:11:04.259Z,959.77
2018-12-07T06:13:30.595Z,959.75
2018-12-07T06:15:56.874Z,959.76
2018-12-07T06:18:23.175Z,959.84
2018-12-07T06:20:49.470Z,959.84
2018-12-07T06:23:15.750Z,959.90
2018-12-07T06:25:42.035Z,959.89
2018-12-07T06:28:08.342Z,959.81
2018-12-07T06:30:34.667Z,959.87
2018-12-07T06:33:00.974Z,959.91
2018-12-07T06:35:27.322Z,959.87
2018-12-07T06:37:53.619Z,959.89
2018-12-07T06:40:19.906Z,959.82
2018-12-07T06:42:46.210Z,959.86
2018-12-07T06:45:12.532Z,959.81
2018-12-07T06:47:38.831Z,959.79
2018-12-07T06:50:05.128Z,959.67
2018-12-07T06:52:31.429Z,959.82
2018-12-07T06:54:57.713Z,959.81
2018-12-07T06:57:24.013Z,959.84
2018-12-07T06:59:50.295Z,959.87
2018-12-07T07:02:16.608Z,959.86
2018-12-07T07:04:42.898Z,959.90
2018-12-07T07:07:09.193Z,959.95
2018-12-07T07:09:35.491Z,960.00
2018-12-07T07:12:01.789Z,960.01
2018-12-07T07:14:28.075Z,960.02
2018-12-07T07:16:54.386Z,960.02
2018-12-07T07:19:20.852Z,960.12
2018-12-07T07:21:47.110Z,960.11
2018-12-07T07:24:13.571Z,960.08
2018-12-07T07:26:39.882Z,960.10
2018-12-07T07:29:06.165Z,960.11
2018-12-07T07:31:32.514Z,960.08
2018-12-07T07:33:58.844Z,959.95
2018-12-07T07:36:25.179Z,959.90
2018-12-07T07:38:51.479Z,959.87
2018-12-07T07:41:17.872Z,959.89
2018-12-07T07:43:45.871Z,959.96
2018-12-07T07:46:10.427Z,959.89
2018-12-07T07:48:36.729Z,959.79
2018-12-07T07:51:03.012Z,959.70
2018-12-07T07:53:29.315Z,959.67
2018-12-07T07:55:55.619Z,959.55
2018-12-07T07:58:21.996Z,959.69
2018-12-07T08:00:48.294Z,959.68
2018-12-07T08:03:14.606Z,959.71
2018-12-07T08:05:40.921Z,959.64
2018-12-07T08:08:07.198Z,959.61
2018-12-07T08:10:33.550Z,959.49
2018-12-07T08:12:59.843Z,959.31
2018-12-07T08:15:26.130Z,959.34
2018-12-07T08:17:52.421Z,959.27
2018-12-07T08:20:18.723Z,959.22
2018-12-07T08:22:45.065Z,959.17
2018-12-07T08:25:11.358Z,959.20
2018-12-07T08:27:37.675Z,959.17
2018-12-07T08:30:05.977Z,959.30
2018-12-07T08:32:32.263Z,959.34
2018-12-07T08:34:58.577Z,959.31
2018-12-07T08:37:24.868Z,959.23
2018-12-07T08:39:51.167Z,959.18
2018-12-07T08:42:17.449Z,959.23
2018-12-07T08:44:43.800Z,959.14
2018-12-07T08:47:10.112Z,959.20
2018-12-07T08:49:36.412Z,959.16
2018-12-07T08:52:02.701Z,959.18
2018-12-07T08:54:28.990Z,959.13
2018-12-07T08:56:55.280Z,959.05
2018-12-07T08:59:21.582Z,958.99
2018-12-07T09:01:47.871Z,959.02
2018-12-07T09:04:14.167Z,959.04
2018-12-07T09:06:40.465Z,958.98
2018-12-07T09:09:06.765Z,958.95
2018-12-07T09:11:33.046Z,958.86
2018-12-07T09:13:59.365Z,958.83
2018-12-07T09:16:25.666Z,958.78
2018-12-07T09:18:51.952Z,958.75
2018-12-07T09:21:18.249Z,958.68
2018-12-07T09:23:49.545Z,958.64
2018-12-07T09:26:10.846Z,958.56
2018-12-07T09:28:37.156Z,958.50
2018-12-07T09:31:03.473Z,958.53
2018-12-07T09:33:29.769Z,958.49
2018-12-07T09:35:56.052Z,958.39
2018-12-07T09:38:22.376Z,958.40
2018-12-07T09:40:48.672Z,958.37
2018-12-07T09:43:14.961Z,958.38
2018-12-07T09:45:41.259Z,958.35
2018-12-07T09:48:07.557Z,958.29
2018-12-07T09:50:33.836Z,958.20
2018-12-07T09:53:00.145Z,958.08
2018-12-07T09:55:26.495Z,958.09
2018-12-07T09:57:52.825Z,958.03
2018-12-07T10:00:19.101Z,958.03
2018-12-07T10:02:45.401Z,958.01
2018-12-07T10:05:11.684Z,957.98
2018-12-07T10:07:37.991Z,957.93
2018-12-07T10:10:04.282Z,957.93
2018-12-07T10:12:30.624Z,957.86
2018-12-07T10:14:56.942Z,957.85
2018-12-07T10:17:23.282Z,957.79
2018-12-07T10:19:49.620Z,957.78
2018-12-07T10:22:15.917Z,957.72
2018-12-07T10:24:42.365Z,957.62
2018-12-07T10:27:08.617Z,957.57
2018-12-07T10:29:34.927Z,957.62
2018-12-07T10:32:01.244Z,957.66
2018-12-07T10:34:27.582Z,957.63
2018-12-07T10:36:53.875Z,957.59
2018-12-07T10:39:20.217Z,957.62
2018-12-07T10:41:46.524Z,957.65
2018-12-07T10:44:12.820Z,957.62
2018-12-07T10:46:39.178Z,957.65
2018-12-07T10:49:05.468Z,957.58
2018-12-07T10:51:31.769Z,957.62
2018-12-07T10:53:58.052Z,957.58
2018-12-07T10:56:24.393Z,957.45
2018-12-07T10:58:50.692Z,957.41
2018-12-07T11:01:16.983Z,957.43
2018-12-07T11:03:43.284Z,957.33
2018-12-07T11:06:09.594Z,957.27
2018-12-07T11:08:35.879Z,957.35
2018-12-07T11:11:02.196Z,957.37
2018-12-07T11:13:28.507Z,957.33
2018-12-07T11:15:54.833Z,957.20
2018-12-07T11:18:21.305Z,957.11
2018-12-07T11:20:47.686Z,956.96
2018-12-07T11:23:13.967Z,956.98
2018-12-07T11:25:40.277Z,956.90
2018-12-07T11:28:06.586Z,956.83
2018-12-07T11:30:32.923Z,956.73
2018-12-07T11:32:59.205Z,956.66
2018-12-07T11:35:25.517Z,956.51
2018-12-07T11:37:51.812Z,956.52
2018-12-07T11:40:18.108Z,956.42
2018-12-07T11:42:44.411Z,956.46
2018-12-07T11:45:10.708Z,956.49
2018-12-07T11:47:36.990Z,956.47
2018-12-07T11:50:03.296Z,956.48
2018-12-07T11:52:29.593Z,956.41
2018-12-07T11:54:55.891Z,956.46
2018-12-07T11:57:22.179Z,956.43
2018-12-07T11:59:48.502Z,956.44
2018-12-07T12:02:14.777Z,956.48
2018-12-07T12:04:41.086Z,956.49
2018-12-07T12:07:07.382Z,956.56
2018-12-07T12:09:33.676Z,956.55
2018-12-07T12:11:59.977Z,956.67
2018-12-07T12:14:26.265Z,956.58
2018-12-07T12:16:52.557Z,956.48
2018-12-07T12:19:18.862Z,956.43
2018-12-07T12:21:45.145Z,956.25
2018-12-07T12:24:11.443Z,956.22
2018-12-07T12:26:37.797Z,956.19
2018-12-07T12:29:04.096Z,956.15
2018-12-07T12:31:30.398Z,956.19
2018-12-07T12:33:56.709Z,956.21
2018-12-07T12:36:23.000Z,956.23
2018-12-07T12:38:49.276Z,956.18
2018-12-07T12:41:15.590Z,956.15
2018-12-07T12:43:41.914Z,956.13
2018-12-07T12:46:08.210Z,956.20
2018-12-07T12:48:34.503Z,956.25
2018-12-07T12:51:00.822Z,956.19
2018-12-07T12:53:27.168Z,956.17
2018-12-07T12:55:53.461Z,956.21
2018-12-07T12:58:19.766Z,956.25
2018-12-07T13:00:46.101Z,956.25
2018-12-07T13:03:12.439Z,956.34
2018-12-07T13:05:38.745Z,956.32
2018-12-07T13:08:05.065Z,956.29
2018-12-07T13:10:31.348Z,956.31
2018-12-07T13:12:57.650Z,956.30
2018-12-07T13:15:23.954Z,956.29
2018-12-07T13:17:50.239Z,956.33
2018-12-07T13:20:16.601Z,956.29
2018-12-07T13:22:42.990Z,956.31
2018-12-07T13:25:09.255Z,956.27
2018-12-07T13:27:35.550Z,956.29
2018-12-07T13:30:01.864Z,956.27
2018-12-07T13:32:28.148Z,956.33
2018-12-07T13:34:54.436Z,956.30
2018-12-07T13:37:20.746Z,956.22
2018-12-07T13:39:47.214Z,956.27
2018-12-07T13:42:13.354Z,956.33
2018-12-07T13:44:39.871Z,956.29
2018-12-07T13:47:06.198Z,956.28
2018-12-07T13:49:32.423Z,956.29
2018-12-07T13:51:58.558Z,956.27
2018-12-07T13:54:24.949Z,956.18
2018-12-07T13:56:51.315Z,956.19
2018-12-07T13:59:17.545Z,956.15
2018-12-07T14:01:43.910Z,956.15
2018-12-07T14:04:10.157Z,956.10
2018-12-07T14:06:36.594Z,956.09
2018-12-07T14:09:02.878Z,956.09
2018-12-07T14:11:29.061Z,956.00
2018-12-07T14:13:55.396Z,956.00
2018-12-07T14:16:21.674Z,955.90
2018-12-07T14:18:48.161Z,955.96
2018-12-07T14:21:14.283Z,955.85
2018-12-07T14:23:40.753Z,955.72
2018-12-07T14:26:06.900Z,955.79
2018-12-07T14:28:33.255Z,955.71
2018-12-07T14:30:59.517Z,955.77
2018-12-07T14:33:25.884Z,955.76
2018-12-07T14:35:52.245Z,955.71
2018-12-07T14:38:18.490Z,955.66
2018-12-07T14:40:44.853Z,955.70
2018-12-07T14:43:11.121Z,955.71
2018-12-07T14:45:37.311Z,955.62
2018-12-07T14:48:03.669Z,955.71
2018-12-07T14:50:29.866Z,955.74
2018-12-07T14:52:56.194Z,955.68
2018-12-07T14:55:22.818Z,955.65
2018-12-07T14:57:48.993Z,955.60
2018-12-07T15:00:15.136Z,955.56
2018-12-07T15:02:41.504Z,955.53
2018-12-07T15:05:07.896Z,955.47
2018-12-07T15:07:34.092Z,955.47
2018-12-07T15:10:00.496Z,955.41
2018-12-07T15:12:26.674Z,955.50
2018-12-07T15:14:53.037Z,955.50
2018-12-07T15:17:19.732Z,955.51
2018-12-07T15:19:46.191Z,955.52
2018-12-07T15:24:38.422Z,955.45
2018-12-07T15:27:04.731Z,955.40
2018-12-07T15:29:31.329Z,955.48
2018-12-07T15:31:57.354Z,955.55
2018-12-07T15:34:23.808Z,955.57
2018-12-07T15:36:49.920Z,955.63
2018-12-07T15:39:16.302Z,955.71
2018-12-07T15:41:42.613Z,955.69
2018-12-07T15:44:08.945Z,955.72
2018-12-07T15:46:35.214Z,955.75
2018-12-07T15:49:01.571Z,955.77
2018-12-07T15:51:27.979Z,955.71
2018-12-07T15:53:54.242Z,955.79
2018-12-07T15:56:20.730Z,955.84
2018-12-07T15:58:46.785Z,955.80
2018-12-07T16:01:13.076Z,955.88
2018-12-07T16:03:39.279Z,955.84
2018-12-07T16:06:05.652Z,955.87
2018-12-07T16:08:32.125Z,955.88
2018-12-07T16:10:58.210Z,955.81
2018-12-07T16:13:25.104Z,955.85
2018-12-07T16:15:51.414Z,955.88
2018-12-07T16:18:17.607Z,955.94
2018-12-07T16:20:43.882Z,955.93
2018-12-07T16:23:10.157Z,955.90
2018-12-07T16:25:36.455Z,955.82
2018-12-07T16:28:02.870Z,955.70
2018-12-07T16:30:29.068Z,955.75
2018-12-07T16:32:55.366Z,955.71
2018-12-07T16:35:21.714Z,955.69
2018-12-07T16:37:48.194Z,955.72
2018-12-07T16:40:14.329Z,955.71
2018-12-07T16:42:40.598Z,955.66
2018-12-07T16:45:06.928Z,955.63
2018-12-07T16:47:33.307Z,955.62
2018-12-07T16:49:59.521Z,955.59
2018-12-07T16:52:25.747Z,955.53
2018-12-07T16:54:52.111Z,955.46
2018-12-07T16:57:18.417Z,955.53
2018-12-07T16:59:44.687Z,955.54
2018-12-07T17:02:11.165Z,955.50
2018-12-07T17:04:37.408Z,955.48
2018-12-07T17:07:03.779Z,955.52
2018-12-07T17:09:29.884Z,955.60
2018-12-07T17:11:56.251Z,955.51
2018-12-07T17:14:22.637Z,955.54
2018-12-07T17:16:48.823Z,955.57
2018-12-07T17:19:15.073Z,955.56
2018-12-07T17:21:41.344Z,955.55
2018-12-07T17:24:07.653Z,955.53
2018-12-07T17:26:34.202Z,955.45
2018-12-07T17:29:00.429Z,955.43
2018-12-07T17:31:26.817Z,955.44
2018-12-07T17:33:53.018Z,955.46
2018-12-07T17:36:19.384Z,955.39
2018-12-07T17:38:45.847Z,955.47
2018-12-07T17:41:12.052Z,955.54
2018-12-07T17:43:38.258Z,955.46
2018-12-07T17:46:04.457Z,955.48
2018-12-07T17:48:30.869Z,955.51
2018-12-07T17:50:57.167Z,955.42
2018-12-07T17:53:23.353Z,955.45
2018-12-07T17:55:49.654Z,955.42
2018-12-07T17:58:16.142Z,955.46
2018-12-07T18:00:42.258Z,955.27
2018-12-07T18:03:08.553Z,955.23
2018-12-07T18:05:34.856Z,955.25
2018-12-07T18:08:01.171Z,955.21
2018-12-07T18:10:27.720Z,955.16
2018-12-07T18:12:53.755Z,955.22
2018-12-07T18:15:20.076Z,955.17
2018-12-07T18:17:46.689Z,955.07
2018-12-07T18:20:12.971Z,955.11
2018-12-07T18:22:38.946Z,955.01
2018-12-07T18:25:05.233Z,955.03
2018-12-07T18:27:31.551Z,955.07
2018-12-07T18:29:57.997Z,955.13
2018-12-07T18:32:24.213Z,955.11
2018-12-07T18:34:50.565Z,955.11
2018-12-07T18:37:17.037Z,955.02
2018-12-07T18:39:43.116Z,954.99
2018-12-07T18:42:09.467Z,954.94
2018-12-07T18:44:35.808Z,954.97
2018-12-07T18:47:02.109Z,954.99
2018-12-07T18:49:28.411Z,954.93
2018-12-07T18:51:54.678Z,954.94
2018-12-07T18:54:20.917Z,954.90
2018-12-07T18:56:47.368Z,954.92
2018-12-07T18:59:13.535Z,954.92
2018-12-07T19:01:39.989Z,954.96
2018-12-07T19:04:06.395Z,954.96
2018-12-07T19:06:32.493Z,954.91
2018-12-07T19:08:58.805Z,954.87
2018-12-07T19:11:25.064Z,954.80
2018-12-07T19:13:51.509Z,954.74
2018-12-07T19:16:17.722Z,954.84
2018-12-07T19:18:43.883Z,954.88
2018-12-07T19:21:10.329Z,954.87
2018-12-07T19:23:36.678Z,954.83
2018-12-07T19:26:03.094Z,954.84
2018-12-07T19:28:29.056Z,954.78
2018-12-07T19:30:55.452Z,954.74
2018-12-07T19:33:21.839Z,954.65
2018-12-07T19:35:47.980Z,954.72
2018-12-07T19:38:14.360Z,954.75
2018-12-07T19:40:40.679Z,954.80
2018-12-07T19:43:07.156Z,954.81
2018-12-07T19:45:33.346Z,954.85
2018-12-07T19:47:59.717Z,954.80
2018-12-07T19:50:26.050Z,954.75
2018-12-07T19:52:52.524Z,954.70
2018-12-07T19:55:18.635Z,954.84
2018-12-07T19:57:44.981Z,954.78
2018-12-07T20:00:11.573Z,954.72
2018-12-07T20:02:37.542Z,954.71
2018-12-07T20:05:03.844Z,954.59
2018-12-07T20:07:30.232Z,954.51
2018-12-07T20:09:56.629Z,954.50
2018-12-07T20:12:22.711Z,954.47
2018-12-07T20:14:49.006Z,954.50
2018-12-07T20:17:15.313Z,954.51
2018-12-07T20:19:41.619Z,954.51
2018-12-07T20:22:07.895Z,954.51
2018-12-07T20:24:34.801Z,954.43
2018-12-07T20:27:01.062Z,954.42
2018-12-07T20:29:27.232Z,954.37
2018-12-07T20:31:53.507Z,954.31
2018-12-07T20:34:19.859Z,954.33
2018-12-07T20:36:46.242Z,954.21
2018-12-07T20:39:12.485Z,954.22
2018-12-07T20:41:38.954Z,954.21
2018-12-07T20:44:05.278Z,954.14
2018-12-07T20:46:31.312Z,954.09
2018-12-07T20:48:57.643Z,954.19
2018-12-07T20:51:26.226Z,954.20
2018-12-07T20:53:50.293Z,954.22
2018-12-07T20:56:16.507Z,954.26
2018-12-07T20:58:42.880Z,954.18
2018-12-07T21:01:09.151Z,954.08
2018-12-07T21:03:35.387Z,954.10
2018-12-07T21:06:01.950Z,954.11
2018-12-07T21:08:28.213Z,954.04
2018-12-07T21:10:54.410Z,954.07
2018-12-07T21:13:20.624Z,954.03
2018-12-07T21:15:46.942Z,954.01
2018-12-07T21:18:13.436Z,954.01
2018-12-07T21:20:39.553Z,954.03
2018-12-07T21:23:06.057Z,954.07
2018-12-07T21:25:32.291Z,954.04
2018-12-07T21:27:58.719Z,954.07
2018-12-07T21:30:24.798Z,954.10
2018-12-07T21:32:51.385Z,954.12
2018-12-07T21:35:17.560Z,954.14
2018-12-07T21:37:44.011Z,954.08
2018-12-07T21:40:10.098Z,954.07
2018-12-07T21:42:36.555Z,953.95
2018-12-07T21:45:02.821Z,954.02
2018-12-07T21:47:29.235Z,953.97
2018-12-07T21:49:55.581Z,954.01
2018-12-07T21:52:21.600Z,953.92
2018-12-07T21:54:48.100Z,953.93
2018-12-07T21:57:14.181Z,953.78
2018-12-07T21:59:40.441Z,953.80
2018-12-07T22:02:06.802Z,953.80
2018-12-07T22:04:33.043Z,953.69
2018-12-07T22:06:59.394Z,953.77
2018-12-07T22:09:25.665Z,953.78
2018-12-07T22:11:52.238Z,953.76
2018-12-07T22:14:18.637Z,953.71
2018-12-07T22:16:44.852Z,953.67
2018-12-07T22:19:11.132Z,953.59
2018-12-07T22:21:37.472Z,953.58
2018-12-07T22:24:04.128Z,953.54
2018-12-07T22:26:30.178Z,953.53
2018-12-07T22:28:56.465Z,953.49
2018-12-07T22:31:23.021Z,953.47
2018-12-07T22:33:49.269Z,953.38
2018-12-07T22:36:15.451Z,953.38
2018-12-07T22:38:41.875Z,953.28
2018-12-07T22:41:08.359Z,953.36
2018-12-07T22:43:34.483Z,953.36
2018-12-07T22:46:00.971Z,953.33
2018-12-07T22:48:27.581Z,953.16
2018-12-07T22:50:53.846Z,953.12
2018-12-07T22:53:20.152Z,953.18
2018-12-07T22:55:46.476Z,953.16
2018-12-07T22:58:12.770Z,953.13
2018-12-07T23:00:39.095Z,953.11
2018-12-07T23:03:05.409Z,953.08
2018-12-07T23:05:31.728Z,953.05
2018-12-07T23:07:58.076Z,953.07
2018-12-07T23:10:24.371Z,953.05
2018-12-07T23:12:50.727Z,952.96
2018-12-07T23:15:17.029Z,952.89
2018-12-07T23:17:43.319Z,952.91
2018-12-07T23:20:09.651Z,952.81
2018-12-07T23:22:35.944Z,952.92
2018-12-07T23:25:02.379Z,952.91
2018-12-07T23:27:28.627Z,952.89
2018-12-07T23:29:54.975Z,952.93
2018-12-07T23:32:21.325Z,952.90
2018-12-07T23:34:47.625Z,952.88
2018-12-07T23:37:13.939Z,952.87
2018-12-07T23:39:40.233Z,952.88
2018-12-07T23:42:06.544Z,952.84
2018-12-07T23:44:32.832Z,952.78
2018-12-07T23:46:59.239Z,952.72
2018-12-07T23:49:25.536Z,952.72
2018-12-07T23:51:51.846Z,952.75
2018-12-07T23:54:18.151Z,952.76
2018-12-07T23:56:44.455Z,952.73
2018-12-07T23:59:10.763Z,952.70
